Max Planck — ELZY8 — position and weather

sailwx.info

Track history (hours):
 
Tides and Currents Weather Stations Pressure Air Temp Water Temp Dewpoint Dewpoint Depression Visibility Wind Speed Wind Dir Waves Ship Positions

Max Planck

Last reported at 2016-Apr-27 23:33 UTC. Time now 2016-Apr-30 11:14 UTC.
Position N 31°07' E 121°57'.

Length 99.9 m; beam 16.2 m; draft 6.8 m.

Type: Tanker. MMSI: 636017362.

Date/timePositionNaut miles runAvg speedWind from/ knotsBaromVisibWave heightAir tempDewpointWater temp
2016-Apr-27 23:33N 31°07' E 121°57'1514.9
2016-Apr-27 22:33N 31°17' E 121°44'1211.9
2016-Apr-27 21:33N 31°24' E 121°33'7 7.4
2016-Apr-27 20:33N 31°29' E 121°27'1211.5
2016-Apr-27 19:33N 31°36' E 121°17'1312.6
2016-Apr-27 18:34N 31°45' E 121°05'56 2.1
2016-Apr-26 15:25N 31°58' E 120°01'5 5.0
2016-Apr-26 14:25N 31°57' E 120°07'10 9.7
2016-Apr-26 13:26N 31°58' E 120°18'910.4
2016-Apr-26 12:33N 32°03' E 120°26'10 9.3
2016-Apr-26 11:26N 31°60' E 120°38'1010.8
2016-Apr-26 10:33N 31°60' E 120°49'1610.9
2016-Apr-26 09:07N 31°47' E 120°59'712.7
2016-Apr-26 08:33N 31°44' E 121°07'1313.3
2016-Apr-26 07:33N 31°35' E 121°18'1212.0
2016-Apr-26 06:33N 31°27' E 121°28'7 7.5
2016-Apr-26 05:33N 31°23' E 121°36'1010.0
2016-Apr-26 04:31N 31°16' E 121°45'1212.5
2016-Apr-26 03:33N 31°08' E 121°55'38 8.7
2016-Apr-25 23:08N 30°59' E 122°39'  
2016-Apr-22 07:30N 34°51' E 139°21'9 9.1
2016-Apr-22 06:33N 34°57' E 139°29'11 9.3
2016-Apr-22 05:25N 35°03' E 139°39'8 9.4
2016-Apr-22 04:33N 35°10' E 139°45'1110.7
2016-Apr-22 03:33N 35°20' E 139°42'9 8.9
2016-Apr-22 02:33N 35°29' E 139°46'0 0.0
2016-Apr-22 01:31N 35°29' E 139°46'0 0.0
2016-Apr-22 00:31N 35°29' E 139°46'0 0.1
2016-Apr-21 23:31N 35°28' E 139°46'2 2.4
2016-Apr-21 22:33N 35°31' E 139°46'0 0.0
2016-Apr-21 10:29N 35°31' E 139°46'0 0.0
2016-Apr-21 09:32N 35°31' E 139°46'0 0.0
2016-Apr-21 08:32N 35°31' E 139°46'0 0.0
2016-Apr-21 07:32N 35°31' E 139°46'0 0.0
2016-Apr-21 06:32N 35°31' E 139°46'0 0.0
2016-Apr-21 05:32N 35°31' E 139°46'3 2.7
2016-Apr-21 04:33N 35°30' E 139°43'2 1.8
2016-Apr-21 03:33N 35°28' E 139°44'0 0.0
2016-Apr-21 02:33N 35°28' E 139°44'0 0.0
2016-Apr-21 01:33N 35°28' E 139°44'4 3.5
2016-Apr-21 00:33N 35°25' E 139°46'1110.8
2016-Apr-20 23:33N 35°14' E 139°47'1010.2
2016-Apr-20 22:33N 35°05' E 139°42'1410.6
2016-Apr-20 21:15N 34°56' E 139°29'  
Track history (hours):
 
Tides and Currents Weather Stations Pressure Air Temp Water Temp Dewpoint Dewpoint Depression Visibility Wind Speed Wind Dir Waves Ship Positions

Max Planck

Last reported at 2016-Apr-27 23:33 UTC. Time now 2016-Apr-30 11:14 UTC.
Position N 31°07' E 121°57'.

Length 99.9 m; beam 16.2 m; draft 6.8 m.

Type: Tanker. MMSI: 636017362.

Date/timePositionNaut miles runAvg speedWind from/ knotsBaromVisibWave heightAir tempDewpointWater temp
2016-Apr-27 23:33N 31°07' E 121°57'1514.9
2016-Apr-27 22:33N 31°17' E 121°44'1211.9
2016-Apr-27 21:33N 31°24' E 121°33'7 7.4
2016-Apr-27 20:33N 31°29' E 121°27'1211.5
2016-Apr-27 19:33N 31°36' E 121°17'1312.6
2016-Apr-27 18:34N 31°45' E 121°05'56 2.1
2016-Apr-26 15:25N 31°58' E 120°01'5 5.0
2016-Apr-26 14:25N 31°57' E 120°07'10 9.7
2016-Apr-26 13:26N 31°58' E 120°18'910.4
2016-Apr-26 12:33N 32°03' E 120°26'10 9.3
2016-Apr-26 11:26N 31°60' E 120°38'1010.8
2016-Apr-26 10:33N 31°60' E 120°49'1610.9
2016-Apr-26 09:07N 31°47' E 120°59'712.7
2016-Apr-26 08:33N 31°44' E 121°07'1313.3
2016-Apr-26 07:33N 31°35' E 121°18'1212.0
2016-Apr-26 06:33N 31°27' E 121°28'7 7.5
2016-Apr-26 05:33N 31°23' E 121°36'1010.0
2016-Apr-26 04:31N 31°16' E 121°45'1212.5
2016-Apr-26 03:33N 31°08' E 121°55'38 8.7
2016-Apr-25 23:08N 30°59' E 122°39'  
2016-Apr-22 07:30N 34°51' E 139°21'9 9.1
2016-Apr-22 06:33N 34°57' E 139°29'11 9.3
2016-Apr-22 05:25N 35°03' E 139°39'8 9.4
2016-Apr-22 04:33N 35°10' E 139°45'1110.7
2016-Apr-22 03:33N 35°20' E 139°42'9 8.9
2016-Apr-22 02:33N 35°29' E 139°46'0 0.0
2016-Apr-22 01:31N 35°29' E 139°46'0 0.0
2016-Apr-22 00:31N 35°29' E 139°46'0 0.1
2016-Apr-21 23:31N 35°28' E 139°46'2 2.4
2016-Apr-21 22:33N 35°31' E 139°46'0 0.0
2016-Apr-21 10:29N 35°31' E 139°46'0 0.0
2016-Apr-21 09:32N 35°31' E 139°46'0 0.0
2016-Apr-21 08:32N 35°31' E 139°46'0 0.0
2016-Apr-21 07:32N 35°31' E 139°46'0 0.0
2016-Apr-21 06:32N 35°31' E 139°46'0 0.0
2016-Apr-21 05:32N 35°31' E 139°46'3 2.7
2016-Apr-21 04:33N 35°30' E 139°43'2 1.8
2016-Apr-21 03:33N 35°28' E 139°44'0 0.0
2016-Apr-21 02:33N 35°28' E 139°44'0 0.0
2016-Apr-21 01:33N 35°28' E 139°44'4 3.5
2016-Apr-21 00:33N 35°25' E 139°46'1110.8
2016-Apr-20 23:33N 35°14' E 139°47'1010.2
2016-Apr-20 22:33N 35°05' E 139°42'1410.6
2016-Apr-20 21:15N 34°56' E 139°29'  

Dump ship's entire track history